sensor_id;sensor_type;location;lat;lon;timestamp;P1;durP1;ratioP1;P2;durP2;ratioP2
77206;SDS011;66190;50.708;7.906;2022-12-18T00:02:14;10.20;;;2.47;;
77206;SDS011;66190;50.708;7.906;2022-12-18T00:04:39;8.40;;;2.87;;
77206;SDS011;66190;50.708;7.906;2022-12-18T00:07:05;9.15;;;2.40;;
77206;SDS011;66190;50.708;7.906;2022-12-18T00:09:30;6.50;;;2.00;;
77206;SDS011;66190;50.708;7.906;2022-12-18T00:11:56;8.70;;;2.30;;
77206;SDS011;66190;50.708;7.906;2022-12-18T00:14:22;8.65;;;2.22;;
77206;SDS011;66190;50.708;7.906;2022-12-18T00:16:47;8.27;;;2.37;;
77206;SDS011;66190;50.708;7.906;2022-12-18T00:19:13;7.72;;;2.47;;
77206;SDS011;66190;50.708;7.906;2022-12-18T00:21:39;8.33;;;2.37;;
77206;SDS011;66190;50.708;7.906;2022-12-18T00:24:06;8.85;;;2.83;;
77206;SDS011;66190;50.708;7.906;2022-12-18T00:26:33;8.13;;;2.30;;
77206;SDS011;66190;50.708;7.906;2022-12-18T00:29:00;10.63;;;3.30;;
77206;SDS011;66190;50.708;7.906;2022-12-18T00:31:27;9.55;;;3.17;;
77206;SDS011;66190;50.708;7.906;2022-12-18T00:33:54;9.27;;;2.70;;
77206;SDS011;66190;50.708;7.906;2022-12-18T00:36:25;7.82;;;2.38;;
77206;SDS011;66190;50.708;7.906;2022-12-18T00:38:56;9.82;;;2.50;;
77206;SDS011;66190;50.708;7.906;2022-12-18T00:41:23;8.33;;;2.50;;
77206;SDS011;66190;50.708;7.906;2022-12-18T00:44:08;9.68;;;2.90;;
77206;SDS011;66190;50.708;7.906;2022-12-18T00:46:36;11.05;;;2.90;;
77206;SDS011;66190;50.708;7.906;2022-12-18T00:49:01;7.40;;;2.00;;
77206;SDS011;66190;50.708;7.906;2022-12-18T00:51:27;9.82;;;2.70;;
77206;SDS011;66190;50.708;7.906;2022-12-18T00:53:53;7.80;;;2.23;;
77206;SDS011;66190;50.708;7.906;2022-12-18T00:56:18;9.68;;;2.65;;
77206;SDS011;66190;50.708;7.906;2022-12-18T00:58:44;7.93;;;1.80;;
77206;SDS011;66190;50.708;7.906;2022-12-18T01:01:09;10.17;;;2.40;;
77206;SDS011;66190;50.708;7.906;2022-12-18T01:03:35;7.18;;;2.00;;
77206;SDS011;66190;50.708;7.906;2022-12-18T01:06:08;7.00;;;1.67;;
77206;SDS011;66190;50.708;7.906;2022-12-18T01:08:36;8.13;;;2.28;;
77206;SDS011;66190;50.708;7.906;2022-12-18T01:11:12;7.15;;;1.88;;
77206;SDS011;66190;50.708;7.906;2022-12-18T01:13:40;7.13;;;1.63;;
77206;SDS011;66190;50.708;7.906;2022-12-18T01:16:07;7.10;;;1.90;;
77206;SDS011;66190;50.708;7.906;2022-12-18T01:18:34;8.10;;;2.10;;
77206;SDS011;66190;50.708;7.906;2022-12-18T01:21:00;9.57;;;2.00;;
77206;SDS011;66190;50.708;7.906;2022-12-18T01:23:25;7.90;;;1.33;;
77206;SDS011;66190;50.708;7.906;2022-12-18T01:25:51;7.43;;;1.95;;
77206;SDS011;66190;50.708;7.906;2022-12-18T01:28:17;8.13;;;2.05;;
77206;SDS011;66190;50.708;7.906;2022-12-18T01:30:42;6.23;;;1.57;;
77206;SDS011;66190;50.708;7.906;2022-12-18T01:33:08;6.87;;;1.50;;
77206;SDS011;66190;50.708;7.906;2022-12-18T01:35:39;7.53;;;1.80;;
77206;SDS011;66190;50.708;7.906;2022-12-18T01:38:06;7.10;;;1.50;;
77206;SDS011;66190;50.708;7.906;2022-12-18T01:40:32;5.67;;;1.30;;
77206;SDS011;66190;50.708;7.906;2022-12-18T01:42:57;7.00;;;1.50;;
77206;SDS011;66190;50.708;7.906;2022-12-18T01:45:27;6.90;;;1.70;;
77206;SDS011;66190;50.708;7.906;2022-12-18T01:48:01;7.57;;;1.90;;
77206;SDS011;66190;50.708;7.906;2022-12-18T01:55:36;6.35;;;1.52;;
77206;SDS011;66190;50.708;7.906;2022-12-18T01:58:06;7.05;;;1.50;;
77206;SDS011;66190;50.708;7.906;2022-12-18T02:00:32;7.50;;;1.50;;
77206;SDS011;66190;50.708;7.906;2022-12-18T02:02:58;7.60;;;1.77;;
77206;SDS011;66190;50.708;7.906;2022-12-18T02:08:08;7.57;;;2.00;;
77206;SDS011;66190;50.708;7.906;2022-12-18T02:16:29;8.45;;;2.08;;
77206;SDS011;66190;50.708;7.906;2022-12-18T02:19:06;8.83;;;2.10;;
77206;SDS011;66190;50.708;7.906;2022-12-18T02:21:49;7.70;;;2.47;;
77206;SDS011;66190;50.708;7.906;2022-12-18T02:24:42;8.23;;;2.58;;
77206;SDS011;66190;50.708;7.906;2022-12-18T02:27:18;8.50;;;2.53;;
77206;SDS011;66190;50.708;7.906;2022-12-18T02:29:50;9.23;;;2.83;;
77206;SDS011;66190;50.708;7.906;2022-12-18T02:32:20;8.73;;;2.53;;
77206;SDS011;66190;50.708;7.906;2022-12-18T02:34:56;8.13;;;2.38;;
77206;SDS011;66190;50.708;7.906;2022-12-18T02:37:23;8.88;;;2.60;;
77206;SDS011;66190;50.708;7.906;2022-12-18T02:39:51;8.68;;;2.67;;
77206;SDS011;66190;50.708;7.906;2022-12-18T02:42:20;10.43;;;3.30;;
77206;SDS011;66190;50.708;7.906;2022-12-18T02:44:48;10.13;;;2.73;;
77206;SDS011;66190;50.708;7.906;2022-12-18T02:47:16;12.05;;;3.47;;
77206;SDS011;66190;50.708;7.906;2022-12-18T03:00:59;11.50;;;4.30;;
77206;SDS011;66190;50.708;7.906;2022-12-18T03:03:36;13.13;;;4.00;;
77206;SDS011;66190;50.708;7.906;2022-12-18T03:06:14;12.77;;;3.88;;
77206;SDS011;66190;50.708;7.906;2022-12-18T03:08:48;12.55;;;4.25;;
77206;SDS011;66190;50.708;7.906;2022-12-18T03:11:17;11.50;;;4.27;;
77206;SDS011;66190;50.708;7.906;2022-12-18T03:14:03;12.02;;;4.57;;
77206;SDS011;66190;50.708;7.906;2022-12-18T03:16:30;15.05;;;5.03;;
77206;SDS011;66190;50.708;7.906;2022-12-18T03:18:59;13.18;;;4.75;;
77206;SDS011;66190;50.708;7.906;2022-12-18T03:21:28;14.52;;;4.70;;
77206;SDS011;66190;50.708;7.906;2022-12-18T03:24:08;13.40;;;4.67;;
77206;SDS011;66190;50.708;7.906;2022-12-18T03:26:35;14.23;;;4.53;;
77206;SDS011;66190;50.708;7.906;2022-12-18T03:29:09;13.32;;;4.88;;
77206;SDS011;66190;50.708;7.906;2022-12-18T03:32:15;14.27;;;4.97;;
77206;SDS011;66190;50.708;7.906;2022-12-18T03:34:48;12.38;;;5.25;;
77206;SDS011;66190;50.708;7.906;2022-12-18T03:37:17;15.40;;;4.90;;
77206;SDS011;66190;50.708;7.906;2022-12-18T03:39:43;12.95;;;4.60;;
77206;SDS011;66190;50.708;7.906;2022-12-18T03:42:16;15.30;;;5.10;;
77206;SDS011;66190;50.708;7.906;2022-12-18T03:44:57;14.95;;;4.95;;
77206;SDS011;66190;50.708;7.906;2022-12-18T03:47:27;13.20;;;4.72;;
77206;SDS011;66190;50.708;7.906;2022-12-18T03:52:55;13.20;;;4.53;;
77206;SDS011;66190;50.708;7.906;2022-12-18T03:55:36;14.45;;;5.30;;
77206;SDS011;66190;50.708;7.906;2022-12-18T03:58:03;13.48;;;5.65;;
77206;SDS011;66190;50.708;7.906;2022-12-18T04:00:31;15.50;;;5.18;;
77206;SDS011;66190;50.708;7.906;2022-12-18T04:02:58;14.98;;;5.28;;
77206;SDS011;66190;50.708;7.906;2022-12-18T04:05:27;16.13;;;5.10;;
77206;SDS011;66190;50.708;7.906;2022-12-18T04:07:55;15.48;;;5.43;;
77206;SDS011;66190;50.708;7.906;2022-12-18T04:10:22;15.13;;;5.30;;
77206;SDS011;66190;50.708;7.906;2022-12-18T04:12:47;15.65;;;5.47;;
77206;SDS011;66190;50.708;7.906;2022-12-18T04:15:13;18.63;;;5.80;;
77206;SDS011;66190;50.708;7.906;2022-12-18T04:17:39;16.48;;;5.43;;
77206;SDS011;66190;50.708;7.906;2022-12-18T04:20:12;15.80;;;4.97;;
77206;SDS011;66190;50.708;7.906;2022-12-18T04:22:37;16.23;;;5.13;;
77206;SDS011;66190;50.708;7.906;2022-12-18T04:25:03;13.47;;;5.33;;
77206;SDS011;66190;50.708;7.906;2022-12-18T04:27:29;12.52;;;4.45;;
77206;SDS011;66190;50.708;7.906;2022-12-18T04:29:55;13.03;;;4.70;;
77206;SDS011;66190;50.708;7.906;2022-12-18T04:32:21;14.60;;;5.50;;
77206;SDS011;66190;50.708;7.906;2022-12-18T04:34:46;14.97;;;5.30;;
77206;SDS011;66190;50.708;7.906;2022-12-18T04:37:12;12.70;;;5.00;;
77206;SDS011;66190;50.708;7.906;2022-12-18T04:39:38;17.37;;;5.13;;
77206;SDS011;66190;50.708;7.906;2022-12-18T04:42:04;14.02;;;5.03;;
77206;SDS011;66190;50.708;7.906;2022-12-18T04:44:29;13.43;;;5.07;;
77206;SDS011;66190;50.708;7.906;2022-12-18T04:46:55;10.80;;;3.75;;
77206;SDS011;66190;50.708;7.906;2022-12-18T04:49:21;14.27;;;4.77;;
77206;SDS011;66190;50.708;7.906;2022-12-18T04:51:46;14.10;;;4.78;;
77206;SDS011;66190;50.708;7.906;2022-12-18T04:54:12;14.53;;;5.03;;
77206;SDS011;66190;50.708;7.906;2022-12-18T04:56:38;13.93;;;4.60;;
77206;SDS011;66190;50.708;7.906;2022-12-18T04:59:04;13.10;;;5.22;;
77206;SDS011;66190;50.708;7.906;2022-12-18T05:01:30;13.30;;;4.70;;
77206;SDS011;66190;50.708;7.906;2022-12-18T05:03:58;14.65;;;4.72;;
77206;SDS011;66190;50.708;7.906;2022-12-18T05:06:24;14.07;;;4.40;;
77206;SDS011;66190;50.708;7.906;2022-12-18T05:08:50;14.50;;;5.20;;
77206;SDS011;66190;50.708;7.906;2022-12-18T05:11:15;12.80;;;3.77;;
77206;SDS011;66190;50.708;7.906;2022-12-18T05:13:41;13.70;;;4.60;;
77206;SDS011;66190;50.708;7.906;2022-12-18T05:16:07;14.18;;;4.10;;
77206;SDS011;66190;50.708;7.906;2022-12-18T05:18:33;14.60;;;5.07;;
77206;SDS011;66190;50.708;7.906;2022-12-18T05:20:59;15.18;;;4.78;;
77206;SDS011;66190;50.708;7.906;2022-12-18T05:23:25;12.70;;;4.57;;
77206;SDS011;66190;50.708;7.906;2022-12-18T05:25:52;14.35;;;4.20;;
77206;SDS011;66190;50.708;7.906;2022-12-18T05:28:22;13.68;;;4.32;;
77206;SDS011;66190;50.708;7.906;2022-12-18T05:30:50;12.02;;;3.85;;
77206;SDS011;66190;50.708;7.906;2022-12-18T05:33:18;14.77;;;4.85;;
77206;SDS011;66190;50.708;7.906;2022-12-18T05:35:44;14.93;;;5.23;;
77206;SDS011;66190;50.708;7.906;2022-12-18T05:38:10;14.07;;;4.70;;
77206;SDS011;66190;50.708;7.906;2022-12-18T05:40:35;12.75;;;4.03;;
77206;SDS011;66190;50.708;7.906;2022-12-18T05:43:01;12.73;;;4.10;;
77206;SDS011;66190;50.708;7.906;2022-12-18T05:45:27;13.18;;;4.45;;
77206;SDS011;66190;50.708;7.906;2022-12-18T05:47:53;13.03;;;4.27;;
77206;SDS011;66190;50.708;7.906;2022-12-18T05:50:18;14.50;;;4.68;;
77206;SDS011;66190;50.708;7.906;2022-12-18T05:52:44;11.27;;;3.67;;
77206;SDS011;66190;50.708;7.906;2022-12-18T05:55:09;12.77;;;4.60;;
77206;SDS011;66190;50.708;7.906;2022-12-18T05:57:35;13.05;;;4.25;;
77206;SDS011;66190;50.708;7.906;2022-12-18T06:00:01;12.67;;;4.33;;
77206;SDS011;66190;50.708;7.906;2022-12-18T06:02:27;13.27;;;4.28;;
77206;SDS011;66190;50.708;7.906;2022-12-18T06:04:53;12.90;;;3.78;;
77206;SDS011;66190;50.708;7.906;2022-12-18T06:07:19;11.55;;;3.95;;
77206;SDS011;66190;50.708;7.906;2022-12-18T06:09:44;13.87;;;4.43;;
77206;SDS011;66190;50.708;7.906;2022-12-18T06:12:10;12.80;;;4.28;;
77206;SDS011;66190;50.708;7.906;2022-12-18T06:14:35;13.73;;;4.00;;
77206;SDS011;66190;50.708;7.906;2022-12-18T06:17:01;13.73;;;5.07;;
77206;SDS011;66190;50.708;7.906;2022-12-18T06:19:27;12.63;;;3.80;;
77206;SDS011;66190;50.708;7.906;2022-12-18T06:21:52;11.67;;;4.27;;
77206;SDS011;66190;50.708;7.906;2022-12-18T06:24:18;11.85;;;3.92;;
77206;SDS011;66190;50.708;7.906;2022-12-18T06:26:43;11.07;;;3.50;;
77206;SDS011;66190;50.708;7.906;2022-12-18T06:29:09;14.43;;;4.50;;
77206;SDS011;66190;50.708;7.906;2022-12-18T06:31:35;12.65;;;4.28;;
77206;SDS011;66190;50.708;7.906;2022-12-18T06:34:04;13.23;;;4.50;;
77206;SDS011;66190;50.708;7.906;2022-12-18T06:36:30;13.48;;;4.35;;
77206;SDS011;66190;50.708;7.906;2022-12-18T06:38:56;14.07;;;4.40;;
77206;SDS011;66190;50.708;7.906;2022-12-18T06:41:22;11.38;;;4.40;;
77206;SDS011;66190;50.708;7.906;2022-12-18T06:43:48;13.17;;;4.23;;
77206;SDS011;66190;50.708;7.906;2022-12-18T06:46:14;11.77;;;3.92;;
77206;SDS011;66190;50.708;7.906;2022-12-18T06:48:40;11.82;;;4.00;;
77206;SDS011;66190;50.708;7.906;2022-12-18T06:51:06;12.43;;;4.17;;
77206;SDS011;66190;50.708;7.906;2022-12-18T06:53:32;13.57;;;4.13;;
77206;SDS011;66190;50.708;7.906;2022-12-18T06:56:02;12.23;;;4.00;;
77206;SDS011;66190;50.708;7.906;2022-12-18T06:58:29;17.15;;;4.28;;
77206;SDS011;66190;50.708;7.906;2022-12-18T07:00:59;15.70;;;4.68;;
77206;SDS011;66190;50.708;7.906;2022-12-18T07:03:29;15.33;;;4.90;;
77206;SDS011;66190;50.708;7.906;2022-12-18T07:05:54;15.30;;;4.75;;
77206;SDS011;66190;50.708;7.906;2022-12-18T07:08:20;14.27;;;3.87;;
77206;SDS011;66190;50.708;7.906;2022-12-18T07:10:46;12.55;;;4.18;;
77206;SDS011;66190;50.708;7.906;2022-12-18T07:13:13;13.45;;;4.72;;
77206;SDS011;66190;50.708;7.906;2022-12-18T07:15:40;14.17;;;4.00;;
77206;SDS011;66190;50.708;7.906;2022-12-18T07:18:05;13.60;;;4.45;;
77206;SDS011;66190;50.708;7.906;2022-12-18T07:20:31;14.03;;;3.97;;
77206;SDS011;66190;50.708;7.906;2022-12-18T07:22:57;13.93;;;4.40;;
77206;SDS011;66190;50.708;7.906;2022-12-18T07:25:22;12.33;;;4.13;;
77206;SDS011;66190;50.708;7.906;2022-12-18T07:27:48;13.10;;;3.90;;
77206;SDS011;66190;50.708;7.906;2022-12-18T07:30:14;14.33;;;4.97;;
77206;SDS011;66190;50.708;7.906;2022-12-18T07:32:39;12.97;;;4.37;;
77206;SDS011;66190;50.708;7.906;2022-12-18T07:35:05;11.18;;;3.67;;
77206;SDS011;66190;50.708;7.906;2022-12-18T07:37:31;11.83;;;4.37;;
77206;SDS011;66190;50.708;7.906;2022-12-18T07:39:56;13.02;;;4.78;;
77206;SDS011;66190;50.708;7.906;2022-12-18T07:42:22;16.07;;;4.97;;
77206;SDS011;66190;50.708;7.906;2022-12-18T07:44:57;15.60;;;5.00;;
77206;SDS011;66190;50.708;7.906;2022-12-18T07:47:26;15.23;;;4.50;;
77206;SDS011;66190;50.708;7.906;2022-12-18T07:49:52;14.05;;;5.18;;
77206;SDS011;66190;50.708;7.906;2022-12-18T07:52:18;12.47;;;4.47;;
77206;SDS011;66190;50.708;7.906;2022-12-18T07:54:44;13.43;;;4.60;;
77206;SDS011;66190;50.708;7.906;2022-12-18T07:57:10;14.02;;;4.45;;
77206;SDS011;66190;50.708;7.906;2022-12-18T07:59:36;12.13;;;4.20;;
77206;SDS011;66190;50.708;7.906;2022-12-18T08:02:02;14.35;;;4.68;;
77206;SDS011;66190;50.708;7.906;2022-12-18T08:04:28;14.73;;;4.53;;
77206;SDS011;66190;50.708;7.906;2022-12-18T08:06:53;15.20;;;4.90;;
77206;SDS011;66190;50.708;7.906;2022-12-18T08:09:19;14.20;;;4.90;;
77206;SDS011;66190;50.708;7.906;2022-12-18T08:11:45;13.32;;;5.30;;
77206;SDS011;66190;50.708;7.906;2022-12-18T08:14:10;13.00;;;4.90;;
77206;SDS011;66190;50.708;7.906;2022-12-18T08:16:36;13.05;;;4.32;;
77206;SDS011;66190;50.708;7.906;2022-12-18T08:19:02;14.70;;;5.00;;
77206;SDS011;66190;50.708;7.906;2022-12-18T08:21:29;15.50;;;5.22;;
77206;SDS011;66190;50.708;7.906;2022-12-18T08:23:56;13.73;;;5.43;;
77206;SDS011;66190;50.708;7.906;2022-12-18T08:26:24;13.60;;;4.30;;
77206;SDS011;66190;50.708;7.906;2022-12-18T08:28:53;12.50;;;4.40;;
77206;SDS011;66190;50.708;7.906;2022-12-18T08:31:19;16.10;;;4.63;;
77206;SDS011;66190;50.708;7.906;2022-12-18T08:33:45;13.77;;;4.47;;
77206;SDS011;66190;50.708;7.906;2022-12-18T08:36:14;15.13;;;4.53;;
77206;SDS011;66190;50.708;7.906;2022-12-18T08:38:40;11.73;;;4.35;;
77206;SDS011;66190;50.708;7.906;2022-12-18T08:41:09;11.27;;;4.27;;
77206;SDS011;66190;50.708;7.906;2022-12-18T08:43:38;20.92;;;7.53;;
77206;SDS011;66190;50.708;7.906;2022-12-18T08:46:23;17.55;;;6.35;;
77206;SDS011;66190;50.708;7.906;2022-12-18T08:48:50;20.97;;;6.93;;
77206;SDS011;66190;50.708;7.906;2022-12-18T08:51:17;12.73;;;4.70;;
77206;SDS011;66190;50.708;7.906;2022-12-18T08:53:43;14.90;;;4.45;;
77206;SDS011;66190;50.708;7.906;2022-12-18T08:56:10;12.38;;;4.07;;
77206;SDS011;66190;50.708;7.906;2022-12-18T08:58:36;11.35;;;3.80;;
77206;SDS011;66190;50.708;7.906;2022-12-18T09:01:05;13.60;;;4.03;;
77206;SDS011;66190;50.708;7.906;2022-12-18T09:03:34;12.82;;;4.18;;
77206;SDS011;66190;50.708;7.906;2022-12-18T09:06:00;11.00;;;4.15;;
77206;SDS011;66190;50.708;7.906;2022-12-18T09:08:26;10.73;;;4.03;;
77206;SDS011;66190;50.708;7.906;2022-12-18T09:10:53;11.70;;;3.97;;
77206;SDS011;66190;50.708;7.906;2022-12-18T09:13:19;11.20;;;3.72;;
77206;SDS011;66190;50.708;7.906;2022-12-18T09:15:49;10.93;;;3.58;;
77206;SDS011;66190;50.708;7.906;2022-12-18T09:18:17;12.20;;;3.83;;
77206;SDS011;66190;50.708;7.906;2022-12-18T09:20:44;11.77;;;4.03;;
77206;SDS011;66190;50.708;7.906;2022-12-18T09:23:10;12.60;;;4.03;;
77206;SDS011;66190;50.708;7.906;2022-12-18T09:25:36;12.25;;;3.65;;
77206;SDS011;66190;50.708;7.906;2022-12-18T09:28:03;12.02;;;3.92;;
77206;SDS011;66190;50.708;7.906;2022-12-18T09:30:37;10.35;;;3.33;;
77206;SDS011;66190;50.708;7.906;2022-12-18T09:33:04;11.37;;;3.63;;
77206;SDS011;66190;50.708;7.906;2022-12-18T09:35:29;12.40;;;4.35;;
77206;SDS011;66190;50.708;7.906;2022-12-18T09:37:55;10.47;;;3.47;;
77206;SDS011;66190;50.708;7.906;2022-12-18T09:40:22;12.93;;;4.10;;
77206;SDS011;66190;50.708;7.906;2022-12-18T09:43:09;9.67;;;3.27;;
77206;SDS011;66190;50.708;7.906;2022-12-18T09:45:46;10.27;;;3.25;;
77206;SDS011;66190;50.708;7.906;2022-12-18T09:48:20;10.30;;;4.07;;
77206;SDS011;66190;50.708;7.906;2022-12-18T09:50:50;11.23;;;3.72;;
77206;SDS011;66190;50.708;7.906;2022-12-18T09:53:21;11.82;;;4.20;;
77206;SDS011;66190;50.708;7.906;2022-12-18T09:55:49;10.67;;;3.90;;
77206;SDS011;66190;50.708;7.906;2022-12-18T10:01:06;14.85;;;5.22;;
77206;SDS011;66190;50.708;7.906;2022-12-18T10:03:37;12.52;;;4.80;;
77206;SDS011;66190;50.708;7.906;2022-12-18T10:16:45;11.93;;;5.00;;
77206;SDS011;66190;50.708;7.906;2022-12-18T10:27:15;13.07;;;5.57;;
77206;SDS011;66190;50.708;7.906;2022-12-18T10:29:43;15.87;;;5.10;;
77206;SDS011;66190;50.708;7.906;2022-12-18T10:32:17;13.90;;;5.03;;
77206;SDS011;66190;50.708;7.906;2022-12-18T10:34:45;14.25;;;5.35;;
77206;SDS011;66190;50.708;7.906;2022-12-18T10:37:16;15.98;;;5.72;;
77206;SDS011;66190;50.708;7.906;2022-12-18T10:39:43;15.85;;;6.00;;
77206;SDS011;66190;50.708;7.906;2022-12-18T10:42:19;14.60;;;5.70;;
77206;SDS011;66190;50.708;7.906;2022-12-18T10:44:45;13.75;;;5.18;;
77206;SDS011;66190;50.708;7.906;2022-12-18T10:47:12;15.50;;;6.75;;
77206;SDS011;66190;50.708;7.906;2022-12-18T10:49:50;14.60;;;5.57;;
77206;SDS011;66190;50.708;7.906;2022-12-18T10:52:24;15.85;;;5.95;;
77206;SDS011;66190;50.708;7.906;2022-12-18T10:55:01;16.23;;;5.67;;
77206;SDS011;66190;50.708;7.906;2022-12-18T10:59:56;18.77;;;5.90;;
77206;SDS011;66190;50.708;7.906;2022-12-18T11:02:44;16.40;;;5.93;;
77206;SDS011;66190;50.708;7.906;2022-12-18T11:07:54;13.87;;;5.60;;
77206;SDS011;66190;50.708;7.906;2022-12-18T11:10:21;16.95;;;5.28;;
77206;SDS011;66190;50.708;7.906;2022-12-18T11:12:51;15.57;;;6.05;;
77206;SDS011;66190;50.708;7.906;2022-12-18T11:15:20;13.63;;;6.25;;
77206;SDS011;66190;50.708;7.906;2022-12-18T11:17:51;17.08;;;6.43;;
77206;SDS011;66190;50.708;7.906;2022-12-18T11:22:58;15.25;;;6.40;;
77206;SDS011;66190;50.708;7.906;2022-12-18T11:25:26;18.02;;;6.88;;
77206;SDS011;66190;50.708;7.906;2022-12-18T11:27:53;17.83;;;5.65;;
77206;SDS011;66190;50.708;7.906;2022-12-18T11:30:26;14.70;;;5.90;;
77206;SDS011;66190;50.708;7.906;2022-12-18T11:33:01;17.60;;;6.07;;
77206;SDS011;66190;50.708;7.906;2022-12-18T11:35:38;14.30;;;6.05;;
77206;SDS011;66190;50.708;7.906;2022-12-18T11:38:20;14.68;;;6.10;;
77206;SDS011;66190;50.708;7.906;2022-12-18T11:40:58;17.45;;;6.40;;
77206;SDS011;66190;50.708;7.906;2022-12-18T11:43:38;18.65;;;6.55;;
77206;SDS011;66190;50.708;7.906;2022-12-18T11:46:13;16.40;;;5.77;;
77206;SDS011;66190;50.708;7.906;2022-12-18T11:48:47;16.05;;;6.25;;
77206;SDS011;66190;50.708;7.906;2022-12-18T11:51:44;15.98;;;6.22;;
77206;SDS011;66190;50.708;7.906;2022-12-18T11:54:13;16.58;;;6.93;;
77206;SDS011;66190;50.708;7.906;2022-12-18T11:56:46;17.73;;;7.40;;
77206;SDS011;66190;50.708;7.906;2022-12-18T12:04:46;18.23;;;7.90;;
77206;SDS011;66190;50.708;7.906;2022-12-18T12:21:58;23.38;;;9.70;;
77206;SDS011;66190;50.708;7.906;2022-12-18T12:24:00;23.08;;;8.55;;
77206;SDS011;66190;50.708;7.906;2022-12-18T12:26:49;21.27;;;8.20;;
77206;SDS011;66190;50.708;7.906;2022-12-18T12:34:44;21.27;;;8.63;;
77206;SDS011;66190;50.708;7.906;2022-12-18T12:39:46;22.77;;;8.50;;
77206;SDS011;66190;50.708;7.906;2022-12-18T12:45:36;24.52;;;9.25;;
77206;SDS011;66190;50.708;7.906;2022-12-18T12:48:31;23.30;;;7.88;;
77206;SDS011;66190;50.708;7.906;2022-12-18T12:51:02;19.77;;;8.32;;
77206;SDS011;66190;50.708;7.906;2022-12-18T12:53:49;21.37;;;7.93;;
77206;SDS011;66190;50.708;7.906;2022-12-18T12:56:17;19.30;;;7.97;;
77206;SDS011;66190;50.708;7.906;2022-12-18T13:04:06;19.85;;;8.13;;
77206;SDS011;66190;50.708;7.906;2022-12-18T13:06:39;20.83;;;8.03;;
77206;SDS011;66190;50.708;7.906;2022-12-18T13:09:14;20.25;;;8.45;;
77206;SDS011;66190;50.708;7.906;2022-12-18T13:11:41;21.50;;;8.32;;
77206;SDS011;66190;50.708;7.906;2022-12-18T13:14:34;23.90;;;9.47;;
77206;SDS011;66190;50.708;7.906;2022-12-18T13:19:50;22.67;;;9.02;;
77206;SDS011;66190;50.708;7.906;2022-12-18T13:22:46;22.88;;;9.05;;
77206;SDS011;66190;50.708;7.906;2022-12-18T13:28:09;20.37;;;8.83;;
77206;SDS011;66190;50.708;7.906;2022-12-18T13:40:56;26.83;;;10.50;;
77206;SDS011;66190;50.708;7.906;2022-12-18T13:51:57;28.08;;;10.65;;
77206;SDS011;66190;50.708;7.906;2022-12-18T13:56:59;23.20;;;8.77;;
77206;SDS011;66190;50.708;7.906;2022-12-18T13:59:32;25.65;;;9.65;;
77206;SDS011;66190;50.708;7.906;2022-12-18T14:02:07;25.13;;;9.90;;
77206;SDS011;66190;50.708;7.906;2022-12-18T14:04:44;24.05;;;10.00;;
77206;SDS011;66190;50.708;7.906;2022-12-18T14:07:14;25.37;;;9.50;;
77206;SDS011;66190;50.708;7.906;2022-12-18T14:09:59;27.10;;;9.40;;
77206;SDS011;66190;50.708;7.906;2022-12-18T14:12:28;27.52;;;10.10;;
77206;SDS011;66190;50.708;7.906;2022-12-18T14:18:09;25.90;;;9.80;;
77206;SDS011;66190;50.708;7.906;2022-12-18T14:20:59;26.87;;;10.27;;
77206;SDS011;66190;50.708;7.906;2022-12-18T14:23:27;25.85;;;9.40;;
77206;SDS011;66190;50.708;7.906;2022-12-18T14:25:59;22.63;;;9.45;;
77206;SDS011;66190;50.708;7.906;2022-12-18T14:28:49;26.60;;;9.88;;
77206;SDS011;66190;50.708;7.906;2022-12-18T14:31:25;26.40;;;10.00;;
77206;SDS011;66190;50.708;7.906;2022-12-18T14:33:52;25.48;;;9.77;;
77206;SDS011;66190;50.708;7.906;2022-12-18T14:36:22;27.60;;;10.70;;
77206;SDS011;66190;50.708;7.906;2022-12-18T14:38:58;29.60;;;11.07;;
77206;SDS011;66190;50.708;7.906;2022-12-18T14:41:27;24.93;;;10.20;;
77206;SDS011;66190;50.708;7.906;2022-12-18T14:43:54;26.65;;;10.20;;
77206;SDS011;66190;50.708;7.906;2022-12-18T14:48:57;27.08;;;10.90;;
77206;SDS011;66190;50.708;7.906;2022-12-18T14:51:26;25.80;;;10.48;;
77206;SDS011;66190;50.708;7.906;2022-12-18T14:54:00;26.57;;;10.33;;
77206;SDS011;66190;50.708;7.906;2022-12-18T14:56:32;31.45;;;10.77;;
77206;SDS011;66190;50.708;7.906;2022-12-18T14:59:02;29.42;;;11.93;;
77206;SDS011;66190;50.708;7.906;2022-12-18T15:01:33;26.52;;;10.05;;
77206;SDS011;66190;50.708;7.906;2022-12-18T15:04:02;27.42;;;10.75;;
77206;SDS011;66190;50.708;7.906;2022-12-18T15:06:37;26.60;;;10.40;;
77206;SDS011;66190;50.708;7.906;2022-12-18T15:09:26;28.10;;;10.93;;
77206;SDS011;66190;50.708;7.906;2022-12-18T15:11:55;27.90;;;10.48;;
77206;SDS011;66190;50.708;7.906;2022-12-18T15:14:41;25.75;;;10.23;;
77206;SDS011;66190;50.708;7.906;2022-12-18T15:17:17;25.63;;;9.52;;
77206;SDS011;66190;50.708;7.906;2022-12-18T15:19:48;27.53;;;11.13;;
77206;SDS011;66190;50.708;7.906;2022-12-18T15:24:50;28.70;;;11.48;;
77206;SDS011;66190;50.708;7.906;2022-12-18T15:32:35;30.10;;;11.93;;
77206;SDS011;66190;50.708;7.906;2022-12-18T15:37:38;34.28;;;12.02;;
77206;SDS011;66190;50.708;7.906;2022-12-18T15:40:03;27.85;;;10.77;;
77206;SDS011;66190;50.708;7.906;2022-12-18T15:42:29;27.33;;;10.98;;
77206;SDS011;66190;50.708;7.906;2022-12-18T15:45:14;30.60;;;11.55;;
77206;SDS011;66190;50.708;7.906;2022-12-18T15:47:40;26.63;;;11.23;;
77206;SDS011;66190;50.708;7.906;2022-12-18T15:50:09;34.47;;;12.23;;
77206;SDS011;66190;50.708;7.906;2022-12-18T15:52:45;29.30;;;11.27;;
77206;SDS011;66190;50.708;7.906;2022-12-18T15:55:15;30.23;;;11.95;;
77206;SDS011;66190;50.708;7.906;2022-12-18T15:58:03;32.78;;;12.30;;
77206;SDS011;66190;50.708;7.906;2022-12-18T16:00:29;32.05;;;12.07;;
77206;SDS011;66190;50.708;7.906;2022-12-18T16:02:55;31.40;;;12.30;;
77206;SDS011;66190;50.708;7.906;2022-12-18T16:05:21;30.52;;;11.57;;
77206;SDS011;66190;50.708;7.906;2022-12-18T16:07:48;30.48;;;11.43;;
77206;SDS011;66190;50.708;7.906;2022-12-18T16:10:13;30.40;;;12.13;;
77206;SDS011;66190;50.708;7.906;2022-12-18T16:12:39;29.00;;;11.60;;
77206;SDS011;66190;50.708;7.906;2022-12-18T16:15:06;33.05;;;12.05;;
77206;SDS011;66190;50.708;7.906;2022-12-18T16:17:32;35.00;;;13.02;;
77206;SDS011;66190;50.708;7.906;2022-12-18T16:19:58;32.00;;;11.80;;
77206;SDS011;66190;50.708;7.906;2022-12-18T16:22:25;35.58;;;13.02;;
77206;SDS011;66190;50.708;7.906;2022-12-18T16:24:54;27.52;;;11.13;;
77206;SDS011;66190;50.708;7.906;2022-12-18T16:27:21;30.87;;;11.37;;
77206;SDS011;66190;50.708;7.906;2022-12-18T16:29:48;33.53;;;12.65;;
77206;SDS011;66190;50.708;7.906;2022-12-18T16:32:15;32.38;;;11.70;;
77206;SDS011;66190;50.708;7.906;2022-12-18T16:34:43;28.40;;;10.85;;
77206;SDS011;66190;50.708;7.906;2022-12-18T16:37:10;34.40;;;13.57;;
77206;SDS011;66190;50.708;7.906;2022-12-18T16:39:37;34.07;;;12.37;;
77206;SDS011;66190;50.708;7.906;2022-12-18T16:42:11;38.28;;;12.88;;
77206;SDS011;66190;50.708;7.906;2022-12-18T16:44:44;34.22;;;12.82;;
77206;SDS011;66190;50.708;7.906;2022-12-18T16:47:10;31.73;;;12.15;;
77206;SDS011;66190;50.708;7.906;2022-12-18T16:49:36;34.22;;;12.82;;
77206;SDS011;66190;50.708;7.906;2022-12-18T16:52:02;34.03;;;12.13;;
77206;SDS011;66190;50.708;7.906;2022-12-18T16:54:29;33.83;;;13.05;;
77206;SDS011;66190;50.708;7.906;2022-12-18T16:56:55;32.27;;;12.30;;
77206;SDS011;66190;50.708;7.906;2022-12-18T16:59:21;33.78;;;12.50;;
77206;SDS011;66190;50.708;7.906;2022-12-18T17:01:47;41.35;;;14.95;;
77206;SDS011;66190;50.708;7.906;2022-12-18T17:04:13;36.27;;;14.20;;